Impacts METAR Board INFO
IDs:

KLAX - Los Angeles Intl, CA, US

Updated at: 0738 UTC 11 Dec 2017
Potential Impact None Slight Moderate High
Time10/19Z 10/20Z 10/21Z 10/22Z 10/23Z 11/00Z 11/01Z 11/02Z 11/03Z 11/04Z 11/05Z 11/06Z 11/07Z
VIS10 10 10 10 10 10 10 10 10 10 10 10 10
CIG230 230 300 300 200 200 200 200 200 200 200 -- 280
CoverBKNBKNBKNBKNOVCOVCBKNOVCOVCOVCBKNSCTBKN
FltCatVFRVFRVFRVFRVFRVFRVFRVFRVFRVFRVFRVFRVFR
WX--------------------------
WDir0320340032032035030000400
WSpd0 4 4 0 6 5 6 3 0 0 0 7 0
WGst-- -- -- -- -- -- -- -- -- -- -- -- --
Raw hourly METARs
KLAX 101853Z 00000KT 10SM FEW060 FEW180 BKN230 BKN300 24/M09 A3016 RMK AO2 SLP211 FU FEW060 T02441089
KLAX 101953Z 32004KT 10SM FEW060 BKN230 BKN300 28/M08 A3013 RMK AO2 SLP203 FU FEW060 T02781083
KLAX 102053Z 34004KT 10SM FEW055 FEW110 SCT230 BKN300 29/M09 A3010 RMK AO2 SLP193 FU FEW055 FU FEW110 T02891094 58025
KLAX 102153Z 00000KT 10SM FEW055 FEW110 SCT230 BKN300 28/M11 A3008 RMK AO2 SLP186 FU FEW055 FU FEW110 T02831106
KLAX 102253Z 32006KT 10SM FEW055 OVC200 28/M12 A3008 RMK AO2 SLP184 FU FEW055 T02831117
KLAX 102353Z 32005KT 10SM OVC200 28/M09 A3008 RMK AO2 SLP183 T02781094 10294 20211 56009
KLAX 110053Z 35006KT 10SM FEW055 BKN200 26/M10 A3008 RMK AO2 SLP185 FU FEW055 T02611100
KLAX 110153Z 03003KT 10SM OVC200 24/M10 A3010 RMK AO2 SLP193 T02391100
KLAX 110253Z 00000KT 10SM OVC200 23/M11 A3012 RMK AO2 SLP199 T02331111 53014
KLAX 110353Z 00000KT 10SM OVC200 22/M09 A3013 RMK AO2 SLP203 T02221089
KLAX 110453Z 00000KT 10SM BKN200 22/M09 A3015 RMK AO2 SLP206 T02171089
KLAX 110553Z 04007KT 10SM SCT200 22/M08 A3016 RMK AO2 SLP211 T02171078 10278 20211 53014
KLAX 110653Z 00000KT 10SM SCT200 BKN280 20/M08 A3017 RMK AO2 SLP213 T02001078